createdAt,value
2022-10-17T00:01:11.283Z,14.00
2022-10-17T00:04:38.029Z,14.00
2022-10-17T00:08:15.873Z,14.00
2022-10-17T00:12:24.332Z,14.00
2022-10-17T00:16:17.896Z,14.00
2022-10-17T00:23:37.262Z,13.90
2022-10-17T00:28:01.448Z,13.90
2022-10-17T00:31:26.558Z,13.90
2022-10-17T00:34:48.930Z,13.80
2022-10-17T00:38:11.040Z,13.80
2022-10-17T00:41:34.761Z,13.70
2022-10-17T00:45:23.700Z,13.70
2022-10-17T00:48:46.269Z,13.60
2022-10-17T00:52:29.763Z,13.60
2022-10-17T00:55:54.157Z,13.60
2022-10-17T00:59:18.414Z,13.60
2022-10-17T01:02:40.428Z,13.50
2022-10-17T01:06:02.347Z,13.50
2022-10-17T01:09:25.420Z,13.50
2022-10-17T01:13:25.743Z,13.40
2022-10-17T01:17:05.744Z,13.40
2022-10-17T01:20:52.130Z,13.40
2022-10-17T01:24:42.258Z,13.40
2022-10-17T01:28:07.243Z,13.40
2022-10-17T01:31:40.471Z,13.40
2022-10-17T01:35:16.767Z,13.30
2022-10-17T01:38:47.345Z,13.30
2022-10-17T01:42:37.645Z,13.20
2022-10-17T01:46:06.770Z,13.20
2022-10-17T01:49:31.597Z,13.20
2022-10-17T01:52:58.023Z,13.20
2022-10-17T01:56:25.191Z,13.10
2022-10-17T01:59:51.529Z,13.10
2022-10-17T02:03:20.689Z,13.10
2022-10-17T02:06:42.701Z,13.10
2022-10-17T02:10:15.402Z,13.10
2022-10-17T02:13:37.242Z,13.10
2022-10-17T02:17:04.957Z,13.10
2022-10-17T02:20:56.988Z,13.00
2022-10-17T02:24:23.461Z,13.00
2022-10-17T02:28:17.239Z,13.10
2022-10-17T02:31:44.330Z,13.10
2022-10-17T02:35:09.565Z,13.20
2022-10-17T02:38:34.450Z,13.20
2022-10-17T02:42:01.824Z,13.20
2022-10-17T02:45:26.438Z,13.30
2022-10-17T02:49:07.153Z,13.40
2022-10-17T02:53:07.543Z,13.40
2022-10-17T02:56:35.042Z,13.50
2022-10-17T03:00:00.078Z,13.50
2022-10-17T03:03:27.417Z,13.60
2022-10-17T03:06:49.777Z,13.60
2022-10-17T03:10:13.601Z,13.60
2022-10-17T03:13:38.979Z,13.60
2022-10-17T03:17:02.369Z,13.60
2022-10-17T03:20:24.795Z,13.50
2022-10-17T03:23:47.266Z,13.50
2022-10-17T03:27:10.728Z,13.40
2022-10-17T03:30:33.720Z,13.30
2022-10-17T03:33:55.904Z,13.30
2022-10-17T03:37:18.062Z,13.30
2022-10-17T03:40:40.291Z,13.40
2022-10-17T03:44:02.425Z,13.40
2022-10-17T03:47:24.551Z,13.30
2022-10-17T03:50:46.726Z,13.30
2022-10-17T03:54:09.656Z,13.20
2022-10-17T03:57:32.354Z,13.10
2022-10-17T04:00:54.615Z,13.00
2022-10-17T04:04:16.825Z,12.90
2022-10-17T04:07:40.049Z,12.90
2022-10-17T04:11:07.141Z,12.80
2022-10-17T04:14:29.223Z,12.80
2022-10-17T04:17:52.445Z,12.80
2022-10-17T04:21:14.665Z,12.70
2022-10-17T04:24:36.891Z,12.60
2022-10-17T04:28:05.219Z,12.60
2022-10-17T04:31:27.426Z,12.50
2022-10-17T04:35:12.629Z,12.50
2022-10-17T04:38:39.141Z,12.40
2022-10-17T04:42:01.138Z,12.40
2022-10-17T04:45:23.453Z,12.40
2022-10-17T04:48:51.357Z,12.30
2022-10-17T04:52:13.546Z,12.30
2022-10-17T04:55:39.556Z,12.30
2022-10-17T04:59:01.808Z,12.30
2022-10-17T05:02:23.855Z,12.30
2022-10-17T07:58:31.486Z,23.00
2022-10-17T08:01:56.325Z,23.90
2022-10-17T08:05:20.109Z,24.30
2022-10-17T08:08:42.593Z,24.10
2022-10-17T08:12:04.727Z,24.40
2022-10-17T08:15:30.935Z,24.70
2022-10-17T08:18:54.159Z,25.50
2022-10-17T08:22:16.142Z,25.60
2022-10-17T08:25:39.844Z,25.60
2022-10-17T08:29:01.992Z,25.70
2022-10-17T08:32:26.623Z,25.60
2022-10-17T08:35:49.015Z,25.70
2022-10-17T08:39:13.196Z,25.60
2022-10-17T08:42:45.848Z,25.60
2022-10-17T08:46:09.448Z,25.60
2022-10-17T08:49:54.134Z,26.30
2022-10-17T08:53:20.150Z,26.60
2022-10-17T08:56:48.779Z,26.60
2022-10-17T09:00:19.375Z,26.20
2022-10-17T09:03:53.711Z,26.40
2022-10-17T09:07:50.127Z,26.50
2022-10-17T09:11:12.083Z,26.50
2022-10-17T09:14:55.423Z,26.30
2022-10-17T09:18:25.711Z,26.30
2022-10-17T09:22:00.050Z,26.20
2022-10-17T09:25:22.519Z,26.10
2022-10-17T09:28:46.541Z,26.00
2022-10-17T09:32:20.424Z,26.40
2022-10-17T09:35:43.890Z,27.00
2022-10-17T09:39:19.337Z,26.70
2022-10-17T09:42:41.472Z,27.00
2022-10-17T09:46:33.705Z,26.00
2022-10-17T09:49:56.070Z,26.60
2022-10-17T09:53:29.643Z,27.00
2022-10-17T09:57:09.210Z,27.20
2022-10-17T10:00:40.147Z,27.00
2022-10-17T10:04:16.635Z,27.20
2022-10-17T10:07:39.666Z,27.30
2022-10-17T10:11:13.391Z,27.10
2022-10-17T10:14:37.713Z,26.90
2022-10-17T10:17:59.674Z,26.50
2022-10-17T10:21:27.601Z,26.70
2022-10-17T10:25:08.995Z,26.90
2022-10-17T10:28:36.133Z,26.40
2022-10-17T10:32:23.389Z,26.80
2022-10-17T10:35:56.780Z,26.90
2022-10-17T10:39:31.239Z,27.10
2022-10-17T10:42:56.238Z,26.80
2022-10-17T10:46:28.054Z,26.70
2022-10-17T10:50:18.105Z,26.60
2022-10-17T10:53:56.664Z,26.30
2022-10-17T10:57:21.632Z,26.30
2022-10-17T11:00:43.870Z,26.20
2022-10-17T11:04:20.925Z,25.80
2022-10-17T11:07:50.515Z,26.10
2022-10-17T11:11:18.283Z,26.30
2022-10-17T11:14:49.664Z,25.80
2022-10-17T11:18:28.334Z,25.40
2022-10-17T11:22:22.916Z,25.50
2022-10-17T11:25:56.720Z,25.90
2022-10-17T11:29:23.845Z,25.90
2022-10-17T11:32:56.752Z,26.10
2022-10-17T11:36:22.579Z,26.10
2022-10-17T11:39:55.173Z,26.20
2022-10-17T11:43:33.887Z,26.20
2022-10-17T11:47:01.706Z,26.40
2022-10-17T11:54:53.739Z,26.20
2022-10-17T11:58:34.620Z,25.70
2022-10-17T12:02:14.706Z,26.10
2022-10-17T12:05:54.880Z,26.60
2022-10-17T12:09:32.454Z,26.10
2022-10-17T12:12:56.260Z,25.60
2022-10-17T12:16:20.907Z,25.60
2022-10-17T12:19:42.959Z,25.60
2022-10-17T12:23:11.551Z,25.80
2022-10-17T12:26:34.418Z,26.10
2022-10-17T12:30:04.305Z,26.20
2022-10-17T12:33:50.354Z,26.40
2022-10-17T12:37:51.633Z,26.50
2022-10-17T12:41:14.186Z,26.90
2022-10-17T12:44:38.029Z,27.00
2022-10-17T12:48:00.052Z,27.10
2022-10-17T12:51:40.496Z,27.20
2022-10-17T12:55:12.642Z,27.20
2022-10-17T12:58:36.544Z,26.90
2022-10-17T13:02:02.044Z,26.00
2022-10-17T13:05:31.700Z,26.00
2022-10-17T13:09:05.600Z,26.20
2022-10-17T13:12:28.561Z,26.00
2022-10-17T13:15:53.341Z,26.10
2022-10-17T13:19:23.337Z,26.10
2022-10-17T13:22:45.633Z,26.00
2022-10-17T13:26:24.007Z,26.00
2022-10-17T13:29:47.815Z,26.10
2022-10-17T13:33:33.287Z,26.00
2022-10-17T13:37:01.479Z,25.80
2022-10-17T13:40:50.057Z,25.70
2022-10-17T13:44:16.712Z,25.60
2022-10-17T13:47:42.401Z,25.70
2022-10-17T13:51:10.353Z,25.70
2022-10-17T13:54:51.332Z,25.50
2022-10-17T13:58:23.922Z,25.40
2022-10-17T14:01:50.279Z,25.10
2022-10-17T14:05:19.337Z,25.00
2022-10-17T14:09:02.531Z,25.00
2022-10-17T14:12:26.682Z,25.10
2022-10-17T14:16:00.984Z,25.00
2022-10-17T14:19:32.397Z,24.90
2022-10-17T14:23:21.064Z,24.80
2022-10-17T14:26:50.893Z,24.60
2022-10-17T14:30:55.849Z,24.50
2022-10-17T14:34:51.865Z,24.40
2022-10-17T14:38:16.357Z,24.20
2022-10-17T14:41:44.267Z,23.90
2022-10-17T14:45:12.378Z,23.60
2022-10-17T14:48:34.643Z,23.40
2022-10-17T14:52:17.988Z,23.20
2022-10-17T14:55:54.345Z,23.10
2022-10-17T14:59:35.456Z,23.10
2022-10-17T15:03:00.667Z,23.00
2022-10-17T15:06:32.795Z,23.00
2022-10-17T15:09:54.786Z,22.90
2022-10-17T15:13:39.903Z,22.80
2022-10-17T15:17:00.816Z,22.60
2022-10-17T15:20:27.055Z,22.40
2022-10-17T15:23:49.621Z,22.30
2022-10-17T15:27:19.568Z,22.20
2022-10-17T15:30:41.526Z,22.20
2022-10-17T15:34:03.524Z,22.10
2022-10-17T15:37:26.038Z,22.00
2022-10-17T15:40:50.952Z,21.90
2022-10-17T15:44:12.904Z,21.80
2022-10-17T15:47:34.945Z,21.70
2022-10-17T15:50:57.171Z,21.60
2022-10-17T15:54:19.140Z,21.60
2022-10-17T15:57:44.273Z,21.50
2022-10-17T16:01:07.406Z,21.30
2022-10-17T16:04:30.684Z,21.20
2022-10-17T16:07:53.891Z,21.00
2022-10-17T16:11:24.590Z,20.80
2022-10-17T16:14:46.751Z,20.80
2022-10-17T16:18:10.087Z,20.60
2022-10-17T16:21:38.052Z,20.40
2022-10-17T16:25:07.748Z,20.20
2022-10-17T16:28:30.040Z,20.00
2022-10-17T16:31:52.040Z,19.90
2022-10-17T16:35:23.235Z,19.80
2022-10-17T16:38:46.411Z,19.60
2022-10-17T16:42:08.524Z,19.40
2022-10-17T16:45:30.795Z,19.20
2022-10-17T16:48:53.223Z,19.10
2022-10-17T16:52:15.291Z,18.90
2022-10-17T16:55:38.026Z,18.80
2022-10-17T16:59:01.217Z,18.90
2022-10-17T17:02:23.216Z,18.80
2022-10-17T17:05:51.795Z,18.60
2022-10-17T17:09:14.727Z,18.50
2022-10-17T17:12:48.168Z,18.40
2022-10-17T17:16:23.697Z,18.30
2022-10-17T17:19:47.189Z,18.20
2022-10-17T17:23:13.707Z,18.00
2022-10-17T17:31:06.757Z,17.90
2022-10-17T17:34:41.567Z,17.80
2022-10-17T17:38:10.438Z,17.80
2022-10-17T17:41:35.974Z,17.70
2022-10-17T17:44:58.728Z,17.70
2022-10-17T17:48:20.980Z,17.60
2022-10-17T17:51:46.660Z,17.60
2022-10-17T17:55:10.022Z,17.60
2022-10-17T17:58:33.558Z,17.60
2022-10-17T18:01:55.647Z,17.60
2022-10-17T18:05:17.829Z,17.50
2022-10-17T18:08:39.851Z,17.50
2022-10-17T18:12:01.963Z,17.40
2022-10-17T18:15:23.990Z,17.40
2022-10-17T18:18:46.206Z,17.30
2022-10-17T18:22:08.193Z,17.20
2022-10-17T18:25:30.153Z,17.20
2022-10-17T18:28:52.369Z,17.10
2022-10-17T18:32:15.711Z,17.10
2022-10-17T18:35:37.749Z,17.00
2022-10-17T18:39:01.196Z,16.90
2022-10-17T18:42:23.699Z,16.80
2022-10-17T18:45:45.632Z,16.70
2022-10-17T18:49:10.200Z,16.40
2022-10-17T18:52:32.192Z,16.30
2022-10-17T18:55:55.968Z,16.30
2022-10-17T18:59:19.289Z,16.20
2022-10-17T19:02:41.301Z,16.10
2022-10-17T19:06:07.439Z,16.10
2022-10-17T19:09:29.568Z,16.00
2022-10-17T19:12:51.561Z,16.00
2022-10-17T19:16:17.351Z,16.00
2022-10-17T19:19:43.157Z,16.10
2022-10-17T19:23:05.385Z,16.30
2022-10-17T19:26:29.918Z,16.40
2022-10-17T19:29:51.903Z,16.40
2022-10-17T19:33:14.064Z,16.30
2022-10-17T19:36:36.303Z,16.30
2022-10-17T19:39:58.269Z,16.20
2022-10-17T19:43:20.992Z,16.10
2022-10-17T19:46:47.017Z,16.10
2022-10-17T19:50:09.338Z,16.00
2022-10-17T19:53:31.811Z,15.90
2022-10-17T19:56:53.988Z,15.90
2022-10-17T20:00:16.029Z,15.80
2022-10-17T20:03:38.411Z,15.80
2022-10-17T20:07:00.421Z,15.60
2022-10-17T20:10:22.824Z,15.70
2022-10-17T20:13:45.010Z,15.60
2022-10-17T20:17:07.084Z,15.40
2022-10-17T20:20:29.223Z,15.40
2022-10-17T20:23:51.581Z,15.30
2022-10-17T20:27:14.327Z,15.20
2022-10-17T20:30:37.043Z,15.00
2022-10-17T20:34:00.637Z,15.00
2022-10-17T20:37:23.384Z,14.90
2022-10-17T20:40:45.842Z,14.90
2022-10-17T20:44:08.585Z,14.80
2022-10-17T20:47:46.145Z,14.80
2022-10-17T20:51:11.369Z,14.70
2022-10-17T20:54:44.069Z,14.70
2022-10-17T20:58:12.680Z,14.70
2022-10-17T21:01:36.748Z,14.70
2022-10-17T21:04:59.107Z,14.60
2022-10-17T21:08:21.485Z,14.50
2022-10-17T21:11:44.023Z,14.50
2022-10-17T21:15:06.948Z,14.40
2022-10-17T21:18:29.672Z,14.40
2022-10-17T21:21:52.148Z,14.40
2022-10-17T21:25:14.901Z,14.40
2022-10-17T21:28:38.001Z,14.40
2022-10-17T21:32:00.097Z,14.30
2022-10-17T21:35:25.421Z,14.30
2022-10-17T21:38:49.682Z,14.30
2022-10-17T21:42:11.973Z,14.10
2022-10-17T21:45:40.073Z,14.00
2022-10-17T21:49:20.984Z,13.90
2022-10-17T21:52:43.254Z,13.80
2022-10-17T21:56:11.662Z,13.60
2022-10-17T21:59:35.774Z,13.70
2022-10-17T22:02:57.974Z,13.70
2022-10-17T22:06:39.157Z,13.80
2022-10-17T22:10:02.689Z,13.90
2022-10-17T22:13:25.049Z,14.00
2022-10-17T22:16:48.354Z,14.00
2022-10-17T22:20:10.348Z,13.90
2022-10-17T22:23:32.594Z,13.80
2022-10-17T22:26:54.576Z,13.70
2022-10-17T22:30:16.675Z,13.70
2022-10-17T22:33:39.581Z,13.60
2022-10-17T22:37:01.579Z,13.60
2022-10-17T22:40:23.537Z,13.50
2022-10-17T22:43:45.634Z,13.50
2022-10-17T22:47:07.826Z,13.40
2022-10-17T22:50:29.818Z,13.40
2022-10-17T22:53:51.787Z,13.30
2022-10-17T22:57:13.817Z,13.20
2022-10-17T23:00:35.857Z,13.20
2022-10-17T23:03:57.993Z,13.20
2022-10-17T23:07:20.140Z,13.20
2022-10-17T23:10:42.205Z,13.20
2022-10-17T23:14:04.184Z,13.20
2022-10-17T23:17:26.260Z,13.30
2022-10-17T23:20:48.845Z,13.50
2022-10-17T23:24:10.806Z,13.60
2022-10-17T23:27:35.360Z,13.50
2022-10-17T23:30:57.518Z,13.50
2022-10-17T23:34:19.518Z,13.40
2022-10-17T23:37:41.622Z,13.40
2022-10-17T23:41:04.001Z,13.40
2022-10-17T23:44:26.723Z,13.30
2022-10-17T23:47:48.914Z,13.30
2022-10-17T23:51:11.234Z,13.20
2022-10-17T23:54:33.251Z,13.10
2022-10-17T23:57:55.213Z,13.10
